AAL1794 KBNA-KCLT
Flight info
| Callsign | AAL1794 |
|---|---|
| Flight time | 0h 45m |
| Altitude | 31000 |
| Route | TAZMO4 BURME COMDY FILPZ4 |
| Aircraft | A321/M-SDE3FGHIRWY/LB1 |
Departure
| Time | 2026-05-06 00:48 |
|---|---|
| Airport | Nashville International Airport (KBNA) |
Arrival
| Time | 2026-05-06 01:34 |
|---|---|
| Airport | Charlotte Douglas International Airport (KCLT) |
| Time | Latitude | Longitude | Altitude | Speed | Heading |
|---|---|---|---|---|---|
| 2026-05-06 00:30 | 36.13228 | -86.67204 | 569 ft | 0 kts | 46° |
| 2026-05-06 00:35 | 36.13226 | -86.67208 | 573 ft | 3 kts | 46° |
| 2026-05-06 00:36 | 36.13210 | -86.67228 | 573 ft | 3 kts | 45° |
| 2026-05-06 00:36 | 36.13190 | -86.67244 | 575 ft | 4 kts | 358° |
| 2026-05-06 00:36 | 36.13169 | -86.67234 | 571 ft | 4 kts | 300° |
| 2026-05-06 00:36 | 36.13166 | -86.67231 | 571 ft | 4 kts | 281° |
| 2026-05-06 00:37 | 36.13168 | -86.67246 | 575 ft | 0 kts | 281° |
| 2026-05-06 00:39 | 36.13173 | -86.67275 | 575 ft | 6 kts | 282° |
| 2026-05-06 00:40 | 36.13183 | -86.67327 | 571 ft | 5 kts | 283° |
| 2026-05-06 00:40 | 36.13176 | -86.67362 | 573 ft | 5 kts | 228° |
| 2026-05-06 00:40 | 36.13129 | -86.67380 | 572 ft | 10 kts | 185° |
| 2026-05-06 00:40 | 36.13063 | -86.67380 | 571 ft | 8 kts | 173° |
| 2026-05-06 00:41 | 36.13014 | -86.67362 | 570 ft | 7 kts | 158° |
| 2026-05-06 00:41 | 36.12977 | -86.67334 | 571 ft | 7 kts | 139° |
| 2026-05-06 00:41 | 36.12935 | -86.67288 | 571 ft | 9 kts | 139° |
| 2026-05-06 00:41 | 36.12897 | -86.67258 | 576 ft | 5 kts | 166° |
| 2026-05-06 00:42 | 36.12866 | -86.67265 | 573 ft | 7 kts | 200° |
| 2026-05-06 00:42 | 36.12812 | -86.67321 | 572 ft | 11 kts | 224° |
| 2026-05-06 00:42 | 36.12770 | -86.67371 | 578 ft | 6 kts | 223° |
| 2026-05-06 00:42 | 36.12744 | -86.67400 | 575 ft | 5 kts | 223° |
| 2026-05-06 00:43 | 36.12717 | -86.67429 | 575 ft | 6 kts | 217° |
| 2026-05-06 00:43 | 36.12679 | -86.67457 | 576 ft | 7 kts | 208° |
| 2026-05-06 00:43 | 36.12621 | -86.67497 | 576 ft | 11 kts | 210° |
| 2026-05-06 00:43 | 36.12562 | -86.67552 | 580 ft | 10 kts | 222° |
| 2026-05-06 00:44 | 36.12514 | -86.67607 | 581 ft | 9 kts | 222° |
| 2026-05-06 00:44 | 36.12464 | -86.67661 | 582 ft | 11 kts | 215° |
| 2026-05-06 00:44 | 36.12389 | -86.67698 | 581 ft | 10 kts | 197° |
| 2026-05-06 00:44 | 36.12352 | -86.67737 | 582 ft | 7 kts | 271° |
| 2026-05-06 00:45 | 36.12368 | -86.67807 | 579 ft | 10 kts | 288° |
| 2026-05-06 00:45 | 36.12380 | -86.67852 | 579 ft | 0 kts | 289° |
| 2026-05-06 00:46 | 36.12382 | -86.67856 | 580 ft | 2 kts | 289° |
| 2026-05-06 00:46 | 36.12396 | -86.67910 | 578 ft | 9 kts | 289° |
| 2026-05-06 00:46 | 36.12410 | -86.67963 | 578 ft | 3 kts | 282° |
| 2026-05-06 00:46 | 36.12403 | -86.67967 | 579 ft | 1 kts | 199° |
| 2026-05-06 00:47 | 36.12400 | -86.67969 | 579 ft | 0 kts | 199° |
| 2026-05-06 00:47 | 36.12394 | -86.67971 | 576 ft | 7 kts | 199° |
| 2026-05-06 00:47 | 36.12112 | -86.68086 | 577 ft | 78 kts | 198° |
| 2026-05-06 00:47 | 36.11396 | -86.68371 | 581 ft | 135 kts | 198° |
| 2026-05-06 00:48 | 36.10429 | -86.68760 | 1020 ft | 146 kts | 196° |
| 2026-05-06 00:48 | 36.09448 | -86.69116 | 1713 ft | 147 kts | 194° |
| 2026-05-06 00:48 | 36.08424 | -86.69375 | 2171 ft | 159 kts | 185° |
| 2026-05-06 00:48 | 36.07250 | -86.69138 | 2382 ft | 186 kts | 166° |
| 2026-05-06 00:49 | 36.05994 | -86.68440 | 2571 ft | 209 kts | 161° |
| 2026-05-06 00:49 | 36.05089 | -86.67932 | 2744 ft | 224 kts | 161° |
| 2026-05-06 00:49 | 36.03121 | -86.66833 | 3460 ft | 240 kts | 162° |
| 2026-05-06 00:49 | 36.01582 | -86.65968 | 4118 ft | 246 kts | 163° |
| 2026-05-06 00:50 | 36.00015 | -86.65046 | 4816 ft | 256 kts | 157° |
| 2026-05-06 00:50 | 35.98644 | -86.63505 | 5397 ft | 281 kts | 132° |
| 2026-05-06 00:50 | 35.97854 | -86.61205 | 5965 ft | 304 kts | 103° |
| 2026-05-06 00:50 | 35.97749 | -86.59427 | 6368 ft | 311 kts | 95° |
| 2026-05-06 00:51 | 35.97699 | -86.56736 | 6974 ft | 317 kts | 95° |
| 2026-05-06 00:51 | 35.97645 | -86.54009 | 7659 ft | 319 kts | 95° |
| 2026-05-06 00:51 | 35.97585 | -86.51260 | 8314 ft | 322 kts | 94° |
| 2026-05-06 00:51 | 35.97533 | -86.48477 | 8961 ft | 327 kts | 91° |
| 2026-05-06 00:52 | 35.97828 | -86.45682 | 9591 ft | 332 kts | 73° |
| 2026-05-06 00:52 | 35.98504 | -86.42945 | 10192 ft | 336 kts | 71° |
| 2026-05-06 00:52 | 35.99214 | -86.40097 | 10343 ft | 358 kts | 72° |
| 2026-05-06 00:52 | 35.99960 | -86.37071 | 10454 ft | 378 kts | 72° |
| 2026-05-06 00:53 | 36.00743 | -86.33884 | 10577 ft | 397 kts | 72° |
| 2026-05-06 00:53 | 36.01545 | -86.30600 | 10802 ft | 411 kts | 72° |
| 2026-05-06 00:53 | 36.02375 | -86.27199 | 11284 ft | 416 kts | 72° |
| 2026-05-06 00:53 | 36.03208 | -86.23766 | 11839 ft | 419 kts | 72° |
| 2026-05-06 00:54 | 36.04045 | -86.20305 | 12396 ft | 422 kts | 73° |
| 2026-05-06 00:54 | 36.04883 | -86.16820 | 12944 ft | 424 kts | 73° |
| 2026-05-06 00:54 | 36.05726 | -86.13315 | 13500 ft | 427 kts | 72° |
| 2026-05-06 00:54 | 36.06505 | -86.09762 | 13986 ft | 430 kts | 79° |
| 2026-05-06 00:55 | 36.06872 | -86.06089 | 14464 ft | 432 kts | 88° |
| 2026-05-06 00:55 | 36.06781 | -86.02372 | 14918 ft | 435 kts | 96° |
| 2026-05-06 00:55 | 36.06516 | -85.98633 | 15367 ft | 438 kts | 96° |
| 2026-05-06 00:55 | 36.06246 | -85.94863 | 15816 ft | 442 kts | 96° |
| 2026-05-06 00:56 | 36.05976 | -85.91063 | 16241 ft | 446 kts | 96° |
| 2026-05-06 00:56 | 36.05709 | -85.87238 | 16668 ft | 449 kts | 96° |
| 2026-05-06 00:56 | 36.05440 | -85.83383 | 17105 ft | 452 kts | 96° |
| 2026-05-06 00:56 | 36.05163 | -85.79503 | 17538 ft | 455 kts | 96° |
| 2026-05-06 00:57 | 36.04889 | -85.75594 | 17960 ft | 458 kts | 96° |
| 2026-05-06 00:57 | 36.04616 | -85.71657 | 18323 ft | 462 kts | 96° |
| 2026-05-06 00:57 | 36.04344 | -85.67694 | 18655 ft | 465 kts | 96° |
| 2026-05-06 00:57 | 36.04071 | -85.63703 | 18996 ft | 467 kts | 96° |
| 2026-05-06 00:58 | 36.03793 | -85.59687 | 19357 ft | 470 kts | 96° |
| 2026-05-06 00:58 | 36.03509 | -85.55656 | 19714 ft | 473 kts | 96° |
| 2026-05-06 00:58 | 36.03214 | -85.51602 | 20100 ft | 475 kts | 96° |
| 2026-05-06 00:58 | 36.02914 | -85.47528 | 20459 ft | 478 kts | 96° |
| 2026-05-06 00:59 | 36.02609 | -85.43429 | 20812 ft | 480 kts | 96° |
| 2026-05-06 00:59 | 36.02305 | -85.39308 | 21168 ft | 483 kts | 96° |
| 2026-05-06 00:59 | 36.02002 | -85.35172 | 21532 ft | 485 kts | 95° |
| 2026-05-06 00:59 | 36.01700 | -85.31009 | 21913 ft | 488 kts | 95° |
| 2026-05-06 01:00 | 36.01397 | -85.26825 | 22248 ft | 490 kts | 95° |
| 2026-05-06 01:00 | 36.01094 | -85.22679 | 22567 ft | 493 kts | 95° |
| 2026-05-06 01:00 | 36.00782 | -85.18452 | 22890 ft | 495 kts | 95° |
| 2026-05-06 01:00 | 36.00466 | -85.14203 | 23211 ft | 498 kts | 95° |
| 2026-05-06 01:01 | 36.00147 | -85.09933 | 23525 ft | 501 kts | 95° |
| 2026-05-06 01:01 | 35.99823 | -85.05641 | 23787 ft | 503 kts | 95° |
| 2026-05-06 01:01 | 35.99512 | -85.01333 | 24048 ft | 506 kts | 95° |
| 2026-05-06 01:01 | 35.99236 | -84.96995 | 24317 ft | 508 kts | 94° |
| 2026-05-06 01:02 | 35.98986 | -84.92637 | 24586 ft | 510 kts | 94° |
| 2026-05-06 01:02 | 35.98748 | -84.88259 | 24849 ft | 512 kts | 94° |
| 2026-05-06 01:02 | 35.98504 | -84.83861 | 25099 ft | 514 kts | 94° |
| 2026-05-06 01:02 | 35.98250 | -84.79451 | 25363 ft | 517 kts | 94° |
| 2026-05-06 01:03 | 35.97982 | -84.75018 | 25625 ft | 519 kts | 94° |
| 2026-05-06 01:03 | 35.97706 | -84.70585 | 26163 ft | 511 kts | 94° |
| 2026-05-06 01:03 | 35.97433 | -84.66294 | 27203 ft | 495 kts | 94° |
| 2026-05-06 01:03 | 35.97165 | -84.62087 | 27853 ft | 488 kts | 94° |
| 2026-05-06 01:04 | 35.96899 | -84.57923 | 28361 ft | 485 kts | 94° |
| 2026-05-06 01:04 | 35.96636 | -84.53776 | 28756 ft | 484 kts | 94° |
| 2026-05-06 01:04 | 35.96374 | -84.49630 | 29076 ft | 485 kts | 94° |
| 2026-05-06 01:04 | 35.96111 | -84.45483 | 29439 ft | 484 kts | 94° |
| 2026-05-06 01:05 | 35.95846 | -84.41342 | 29784 ft | 484 kts | 94° |
| 2026-05-06 01:05 | 35.95579 | -84.37198 | 30104 ft | 484 kts | 94° |
| 2026-05-06 01:05 | 35.95312 | -84.33047 | 30363 ft | 485 kts | 94° |
| 2026-05-06 01:05 | 35.95042 | -84.28894 | 30617 ft | 487 kts | 94° |
| 2026-05-06 01:06 | 35.94765 | -84.24717 | 30797 ft | 489 kts | 93° |
| 2026-05-06 01:06 | 35.94486 | -84.20513 | 30911 ft | 494 kts | 93° |
| 2026-05-06 01:06 | 35.94200 | -84.16261 | 30936 ft | 501 kts | 93° |
| 2026-05-06 01:07 | 35.93612 | -84.07553 | 30932 ft | 516 kts | 93° |
| 2026-05-06 01:07 | 35.93008 | -83.98604 | 30940 ft | 530 kts | 93° |
| 2026-05-06 01:08 | 35.92393 | -83.89490 | 30938 ft | 535 kts | 93° |
| 2026-05-06 01:08 | 35.91754 | -83.80323 | 30933 ft | 537 kts | 93° |
| 2026-05-06 01:09 | 35.91109 | -83.71194 | 30939 ft | 538 kts | 93° |
| 2026-05-06 01:09 | 35.90464 | -83.62013 | 30941 ft | 538 kts | 93° |
| 2026-05-06 01:10 | 35.89815 | -83.52822 | 30944 ft | 538 kts | 92° |
| 2026-05-06 01:10 | 35.88713 | -83.43678 | 30948 ft | 542 kts | 104° |
| 2026-05-06 01:11 | 35.86703 | -83.34714 | 30956 ft | 543 kts | 104° |
| 2026-05-06 01:11 | 35.84704 | -83.25740 | 30971 ft | 543 kts | 104° |
| 2026-05-06 01:12 | 35.82699 | -83.16755 | 30971 ft | 544 kts | 104° |
| 2026-05-06 01:12 | 35.80702 | -83.07773 | 30990 ft | 544 kts | 104° |
| 2026-05-06 01:13 | 35.78711 | -82.98788 | 30995 ft | 543 kts | 104° |
| 2026-05-06 01:13 | 35.76708 | -82.89809 | 30967 ft | 544 kts | 104° |
| 2026-05-06 01:13 | 35.75702 | -82.85314 | 30501 ft | 546 kts | 104° |
| 2026-05-06 01:14 | 35.73674 | -82.76313 | 29165 ft | 534 kts | 104° |
| 2026-05-06 01:14 | 35.72688 | -82.71970 | 29029 ft | 519 kts | 104° |
| 2026-05-06 01:14 | 35.71733 | -82.67760 | 28900 ft | 504 kts | 104° |
| 2026-05-06 01:15 | 35.70800 | -82.63648 | 28568 ft | 495 kts | 104° |
| 2026-05-06 01:15 | 35.69881 | -82.59600 | 28120 ft | 488 kts | 105° |
| 2026-05-06 01:15 | 35.68983 | -82.55655 | 27662 ft | 483 kts | 105° |
| 2026-05-06 01:15 | 35.68067 | -82.51650 | 27184 ft | 477 kts | 105° |
| 2026-05-06 01:16 | 35.67173 | -82.47745 | 26706 ft | 472 kts | 105° |
| 2026-05-06 01:16 | 35.66286 | -82.43885 | 26256 ft | 467 kts | 105° |
| 2026-05-06 01:16 | 35.65408 | -82.40066 | 25804 ft | 462 kts | 105° |
| 2026-05-06 01:16 | 35.64539 | -82.36291 | 25370 ft | 455 kts | 105° |
| 2026-05-06 01:17 | 35.63680 | -82.32569 | 24904 ft | 451 kts | 105° |
| 2026-05-06 01:17 | 35.62827 | -82.28876 | 24470 ft | 447 kts | 105° |
| 2026-05-06 01:17 | 35.61983 | -82.25221 | 24046 ft | 442 kts | 105° |
| 2026-05-06 01:17 | 35.61161 | -82.21656 | 23618 ft | 437 kts | 106° |
| 2026-05-06 01:18 | 35.60334 | -82.18084 | 23124 ft | 433 kts | 106° |
| 2026-05-06 01:18 | 35.59510 | -82.14545 | 22616 ft | 429 kts | 106° |
| 2026-05-06 01:18 | 35.58692 | -82.11037 | 22114 ft | 425 kts | 106° |
| 2026-05-06 01:18 | 35.57883 | -82.07556 | 21636 ft | 422 kts | 107° |
| 2026-05-06 01:19 | 35.57104 | -82.04094 | 21165 ft | 419 kts | 105° |
| 2026-05-06 01:19 | 35.56426 | -82.00650 | 20994 ft | 412 kts | 103° |
| 2026-05-06 01:19 | 35.55815 | -81.97212 | 21018 ft | 413 kts | 102° |
| 2026-05-06 01:19 | 35.55230 | -81.93764 | 21012 ft | 412 kts | 102° |
| 2026-05-06 01:20 | 35.54652 | -81.90351 | 20193 ft | 406 kts | 102° |
| 2026-05-06 01:20 | 35.54067 | -81.86972 | 19190 ft | 403 kts | 103° |
| 2026-05-06 01:20 | 35.53470 | -81.83634 | 18254 ft | 398 kts | 103° |
| 2026-05-06 01:20 | 35.52868 | -81.80342 | 17248 ft | 392 kts | 103° |
| 2026-05-06 01:21 | 35.52279 | -81.77158 | 16721 ft | 373 kts | 103° |
| 2026-05-06 01:21 | 35.51715 | -81.74101 | 16010 ft | 364 kts | 103° |
| 2026-05-06 01:21 | 35.51163 | -81.71100 | 15306 ft | 356 kts | 103° |
| 2026-05-06 01:21 | 35.50629 | -81.68176 | 14809 ft | 351 kts | 103° |
| 2026-05-06 01:22 | 35.50083 | -81.65217 | 13861 ft | 354 kts | 104° |
| 2026-05-06 01:22 | 35.49549 | -81.62312 | 13177 ft | 345 kts | 104° |
| 2026-05-06 01:22 | 35.49166 | -81.59444 | 12439 ft | 338 kts | 92° |
| 2026-05-06 01:22 | 35.49290 | -81.56580 | 11583 ft | 336 kts | 82° |
| 2026-05-06 01:23 | 35.49586 | -81.53746 | 10773 ft | 333 kts | 82° |
| 2026-05-06 01:23 | 35.49867 | -81.50936 | 10135 ft | 332 kts | 83° |
| 2026-05-06 01:23 | 35.50137 | -81.48145 | 9868 ft | 326 kts | 83° |
| 2026-05-06 01:23 | 35.50403 | -81.45399 | 9711 ft | 324 kts | 83° |
| 2026-05-06 01:24 | 35.50573 | -81.42655 | 9363 ft | 320 kts | 96° |
| 2026-05-06 01:24 | 35.50099 | -81.40030 | 9036 ft | 313 kts | 111° |
| 2026-05-06 01:24 | 35.49419 | -81.37489 | 8550 ft | 314 kts | 112° |
| 2026-05-06 01:24 | 35.48726 | -81.34938 | 8056 ft | 316 kts | 112° |
| 2026-05-06 01:25 | 35.48042 | -81.32378 | 7562 ft | 314 kts | 112° |
| 2026-05-06 01:25 | 35.47394 | -81.29884 | 7070 ft | 299 kts | 112° |
| 2026-05-06 01:25 | 35.46795 | -81.27504 | 6620 ft | 284 kts | 112° |
| 2026-05-06 01:25 | 35.46225 | -81.25202 | 6288 ft | 280 kts | 112° |
| 2026-05-06 01:26 | 35.45673 | -81.22936 | 6030 ft | 274 kts | 112° |
| 2026-05-06 01:26 | 35.45137 | -81.20723 | 5782 ft | 268 kts | 112° |
| 2026-05-06 01:26 | 35.44610 | -81.18551 | 5538 ft | 263 kts | 112° |
| 2026-05-06 01:26 | 35.44095 | -81.16424 | 5287 ft | 258 kts | 112° |
| 2026-05-06 01:27 | 35.43595 | -81.14342 | 5044 ft | 252 kts | 112° |
| 2026-05-06 01:27 | 35.43111 | -81.12302 | 4811 ft | 247 kts | 112° |
| 2026-05-06 01:27 | 35.42654 | -81.10296 | 4547 ft | 242 kts | 112° |
| 2026-05-06 01:27 | 35.42208 | -81.08341 | 4289 ft | 240 kts | 112° |
| 2026-05-06 01:28 | 35.41769 | -81.06394 | 4094 ft | 232 kts | 112° |
| 2026-05-06 01:28 | 35.41357 | -81.04535 | 3997 ft | 222 kts | 112° |
| 2026-05-06 01:28 | 35.40959 | -81.02733 | 4000 ft | 212 kts | 112° |
| 2026-05-06 01:28 | 35.40585 | -81.01014 | 4003 ft | 207 kts | 112° |
| 2026-05-06 01:29 | 35.40168 | -80.99338 | 3967 ft | 202 kts | 122° |
| 2026-05-06 01:29 | 35.39397 | -80.97952 | 3872 ft | 194 kts | 142° |
| 2026-05-06 01:29 | 35.38339 | -80.97006 | 3718 ft | 185 kts | 160° |
| 2026-05-06 01:29 | 35.37126 | -80.96562 | 3521 ft | 181 kts | 177° |
| 2026-05-06 01:30 | 35.35877 | -80.96450 | 3312 ft | 176 kts | 179° |
| 2026-05-06 01:30 | 35.34682 | -80.96346 | 3082 ft | 168 kts | 179° |
| 2026-05-06 01:30 | 35.33540 | -80.96247 | 2861 ft | 160 kts | 179° |
| 2026-05-06 01:30 | 35.32450 | -80.96153 | 2662 ft | 154 kts | 180° |
| 2026-05-06 01:31 | 35.31403 | -80.96062 | 2482 ft | 145 kts | 180° |
| 2026-05-06 01:31 | 35.30400 | -80.95976 | 2277 ft | 144 kts | 179° |
| 2026-05-06 01:31 | 35.29407 | -80.95891 | 2088 ft | 143 kts | 178° |
| 2026-05-06 01:31 | 35.28423 | -80.95806 | 1900 ft | 141 kts | 178° |
| 2026-05-06 01:32 | 35.27443 | -80.95722 | 1713 ft | 142 kts | 178° |
| 2026-05-06 01:32 | 35.26453 | -80.95633 | 1486 ft | 143 kts | 177° |
| 2026-05-06 01:32 | 35.25455 | -80.95550 | 1308 ft | 142 kts | 178° |
| 2026-05-06 01:32 | 35.24465 | -80.95461 | 1117 ft | 142 kts | 176° |
| 2026-05-06 01:33 | 35.23472 | -80.95375 | 933 ft | 141 kts | 177° |
| 2026-05-06 01:33 | 35.22479 | -80.95295 | 748 ft | 142 kts | 176° |
| 2026-05-06 01:33 | 35.21611 | -80.95224 | 739 ft | 96 kts | 176° |
| 2026-05-06 01:33 | 35.21064 | -80.95176 | 736 ft | 60 kts | 175° |
| 2026-05-06 01:34 | 35.20789 | -80.95144 | 737 ft | 31 kts | 169° |
| 2026-05-06 01:34 | 35.20629 | -80.95060 | 737 ft | 19 kts | 147° |
| 2026-05-06 01:34 | 35.20575 | -80.94971 | 734 ft | 13 kts | 71° |
| 2026-05-06 01:34 | 35.20639 | -80.94936 | 733 ft | 8 kts | 355° |
| 2026-05-06 01:35 | 35.20696 | -80.94941 | 733 ft | 9 kts | 356° |
| 2026-05-06 01:35 | 35.20765 | -80.94946 | 732 ft | 11 kts | 355° |
| 2026-05-06 01:35 | 35.20858 | -80.94955 | 726 ft | 17 kts | 356° |
| 2026-05-06 01:35 | 35.20990 | -80.94967 | 727 ft | 18 kts | 355° |
| 2026-05-06 01:36 | 35.21104 | -80.94976 | 732 ft | 16 kts | 356° |
| 2026-05-06 01:36 | 35.21214 | -80.94986 | 733 ft | 16 kts | 356° |
| 2026-05-06 01:36 | 35.21332 | -80.94996 | 733 ft | 17 kts | 356° |
| 2026-05-06 01:36 | 35.21457 | -80.95006 | 733 ft | 18 kts | 356° |
| 2026-05-06 01:37 | 35.21573 | -80.95010 | 733 ft | 14 kts | 18° |
| 2026-05-06 01:37 | 35.21605 | -80.94907 | 733 ft | 14 kts | 83° |
| 2026-05-06 01:37 | 35.21611 | -80.94824 | 732 ft | 15 kts | 85° |
| 2026-05-06 01:37 | 35.21621 | -80.94641 | 732 ft | 17 kts | 87° |
| 2026-05-06 01:38 | 35.21628 | -80.94498 | 732 ft | 16 kts | 84° |
| 2026-05-06 01:38 | 35.21669 | -80.94389 | 731 ft | 13 kts | 38° |
| 2026-05-06 01:38 | 35.21760 | -80.94378 | 732 ft | 13 kts | 354° |
| 2026-05-06 01:38 | 35.21841 | -80.94387 | 732 ft | 11 kts | 355° |
| 2026-05-06 01:39 | 35.21883 | -80.94390 | 732 ft | 6 kts | 357° |
| 2026-05-06 01:39 | 35.21894 | -80.94400 | 732 ft | 3 kts | 311° |
| 2026-05-06 01:39 | 35.21906 | -80.94430 | 732 ft | 4 kts | 287° |
| 2026-05-06 01:39 | 35.21910 | -80.94452 | 732 ft | 3 kts | 282° |
| 2026-05-06 01:40 | 35.21912 | -80.94461 | 732 ft | 0 kts | 283° |